Time;durP1;ratioP1;P1;durP2;ratioP2;P2;SDS_P1;SDS_P2;PMS_P1;PMS_P2;Temp;Humidity;BMP_temperature;BMP_pressure;BME280_temperature;BME280_humidity;BME280_pressure;Samples;Min_cycle;Max_cycle;Signal;HPM_P1;HPM_P2
2023/01/16 00:01:42;;;;;;;1.67;0.80;;;;;;;;;;5027744;28;20056;-64
2023/01/16 00:04:12;;;;;;;2.28;1.05;;;;;;;;;;4979020;28;20060;-64
2023/01/16 00:06:42;;;;;;;3.30;1.17;;;;;;;;;;5011339;28;20493;-63
2023/01/16 00:09:12;;;;;;;4.03;1.05;;;;;;;;;;4995369;28;20057;-63
2023/01/16 00:11:42;;;;;;;4.25;1.10;;;;;;;;;;5027934;28;20485;-63
2023/01/16 00:14:12;;;;;;;3.83;1.55;;;;;;;;;;4995576;28;20105;-63
2023/01/16 00:16:42;;;;;;;2.90;1.38;;;;;;;;;;5027969;28;20038;-64
2023/01/16 00:19:13;;;;;;;3.17;1.40;;;;;;;;;;5010707;28;20417;-63
2023/01/16 00:21:44;;;;;;;3.17;1.70;;;;;;;;;;5027864;28;20406;-64
2023/01/16 00:24:14;;;;;;;4.75;1.63;;;;;;;;;;5027985;28;20061;-63
2023/01/16 00:26:45;;;;;;;3.45;1.20;;;;;;;;;;5008857;28;20060;-64
2023/01/16 00:29:15;;;;;;;4.40;1.02;;;;;;;;;;5053312;28;20079;-64
2023/01/16 00:31:44;;;;;;;2.28;1.00;;;;;;;;;;5071529;28;20532;-63
2023/01/16 00:34:15;;;;;;;5.18;1.15;;;;;;;;;;5071568;28;20048;-63
2023/01/16 00:36:46;;;;;;;4.00;1.38;;;;;;;;;;5023576;28;20416;-64
2023/01/16 00:39:16;;;;;;;5.80;1.20;;;;;;;;;;5064583;28;20040;-64
2023/01/16 00:41:46;;;;;;;2.55;1.30;;;;;;;;;;5058565;28;20629;-63
2023/01/16 00:44:16;;;;;;;2.65;1.23;;;;;;;;;;5091772;28;20059;-63
2023/01/16 00:46:46;;;;;;;4.18;1.20;;;;;;;;;;5094258;28;20510;-64
2023/01/16 00:49:16;;;;;;;2.25;1.00;;;;;;;;;;5094307;28;20040;-63
2023/01/16 00:51:46;;;;;;;5.40;1.40;;;;;;;;;;5093644;28;20051;-64
2023/01/16 00:54:16;;;;;;;3.75;1.10;;;;;;;;;;5075076;28;20060;-63
2023/01/16 00:56:46;;;;;;;5.22;1.63;;;;;;;;;;5093812;28;20036;-63
2023/01/16 00:59:16;;;;;;;5.07;1.23;;;;;;;;;;5058199;28;20063;-63
2023/01/16 01:01:46;;;;;;;4.53;2.13;;;;;;;;;;5093796;28;20036;-64
2023/01/16 01:04:17;;;;;;;3.78;1.30;;;;;;;;;;5074385;28;20063;-63
2023/01/16 01:06:47;;;;;;;2.38;1.30;;;;;;;;;;5093664;28;20048;-63
2023/01/16 01:09:16;;;;;;;3.55;1.40;;;;;;;;;;5093478;28;20044;-63
2023/01/16 01:11:47;;;;;;;2.47;1.20;;;;;;;;;;5091634;28;20419;-63
2023/01/16 01:14:17;;;;;;;6.60;1.50;;;;;;;;;;5093897;28;20032;-63
2023/01/16 01:16:47;;;;;;;3.65;1.27;;;;;;;;;;5093529;28;20040;-63
2023/01/16 01:19:17;;;;;;;7.38;1.65;;;;;;;;;;5093840;28;20062;-63
2023/01/16 01:21:47;;;;;;;2.70;1.30;;;;;;;;;;5093350;28;20040;-63
2023/01/16 01:24:17;;;;;;;3.65;1.50;;;;;;;;;;5058284;28;20416;-63
2023/01/16 01:26:47;;;;;;;2.75;1.05;;;;;;;;;;5093222;28;20040;-63
2023/01/16 01:29:17;;;;;;;3.30;1.20;;;;;;;;;;5102043;28;20499;-63
2023/01/16 01:31:47;;;;;;;4.70;1.33;;;;;;;;;;5113684;28;20044;-63
2023/01/16 01:34:17;;;;;;;4.43;1.30;;;;;;;;;;5113304;28;20043;-64
2023/01/16 01:36:46;;;;;;;1.88;0.95;;;;;;;;;;5113865;28;20041;-64
2023/01/16 01:39:16;;;;;;;3.25;1.20;;;;;;;;;;5112698;28;20050;-63
2023/01/16 01:41:47;;;;;;;3.42;1.25;;;;;;;;;;5044382;28;20054;-64
2023/01/16 01:44:47;;;;;;;2.88;1.10;;;;;;;;;;5113415;28;20039;-64
2023/01/16 01:47:21;;;;;;;3.65;1.20;;;;;;;;;;5077229;28;20058;-63
2023/01/16 01:49:52;;;;;;;4.53;1.00;;;;;;;;;;5043634;28;20062;-63
2023/01/16 01:52:24;;;;;;;4.22;1.23;;;;;;;;;;5113272;28;20047;-64
2023/01/16 01:55:00;;;;;;;1.67;0.90;;;;;;;;;;5077064;28;20048;-63
2023/01/16 01:57:39;;;;;;;3.40;1.13;;;;;;;;;;5113329;28;20043;-63
2023/01/16 02:00:18;;;;;;;7.05;1.25;;;;;;;;;;5076937;28;20060;-63
2023/01/16 02:03:03;;;;;;;3.17;1.15;;;;;;;;;;5061542;28;20063;-64
2023/01/16 02:05:44;;;;;;;1.83;1.00;;;;;;;;;;5093707;28;20051;-63
2023/01/16 02:08:17;;;;;;;5.68;1.50;;;;;;;;;;5076709;28;20059;-63
2023/01/16 02:11:00;;;;;;;3.10;0.95;;;;;;;;;;5112799;28;20054;-63
2023/01/16 02:13:30;;;;;;;3.67;1.15;;;;;;;;;;5112698;28;20036;-63
2023/01/16 02:21:56;;;;;;;4.68;1.13;;;;;;;;;;5112931;28;20048;-63
2023/01/16 02:24:50;;;;;;;5.80;1.40;;;;;;;;;;5112303;28;20039;-64
2023/01/16 02:27:29;;;;;;;3.05;1.00;;;;;;;;;;5059742;28;20566;-63
2023/01/16 02:30:02;;;;;;;2.72;0.90;;;;;;;;;;5059231;28;20047;-64
2023/01/16 02:32:56;;;;;;;5.90;1.00;;;;;;;;;;5112489;28;20044;-64
2023/01/16 02:35:52;;;;;;;2.72;1.20;;;;;;;;;;5112693;28;20395;-64
2023/01/16 02:38:33;;;;;;;2.88;0.98;;;;;;;;;;5112370;28;20048;-64
2023/01/16 02:41:26;;;;;;;5.30;1.05;;;;;;;;;;5089159;28;20048;-64
2023/01/16 02:44:20;;;;;;;3.10;1.10;;;;;;;;;;5029428;28;20083;-63
2023/01/16 02:47:31;;;;;;;3.95;1.30;;;;;;;;;;5029005;28;20054;-64
2023/01/16 02:50:05;;;;;;;4.22;1.50;;;;;;;;;;5012840;28;20060;-64
2023/01/16 02:52:52;;;;;;;4.68;1.20;;;;;;;;;;5028680;28;20397;-64
2023/01/16 02:55:38;;;;;;;4.22;1.77;;;;;;;;;;4995832;28;20535;-64
2023/01/16 02:58:11;;;;;;;7.60;1.33;;;;;;;;;;5028527;28;20501;-64
2023/01/16 03:00:55;;;;;;;3.55;1.40;;;;;;;;;;5029119;28;20548;-64
2023/01/16 03:03:48;;;;;;;5.00;1.33;;;;;;;;;;5028842;28;20053;-64
2023/01/16 03:06:27;;;;;;;6.93;1.33;;;;;;;;;;5028463;28;20057;-63
2023/01/16 03:09:21;;;;;;;2.58;1.10;;;;;;;;;;5028815;28;20054;-64
2023/01/16 03:12:07;;;;;;;4.97;1.27;;;;;;;;;;5019576;28;20655;-64
2023/01/16 03:15:13;;;;;;;6.63;1.30;;;;;;;;;;5048577;28;20048;-64
2023/01/16 03:18:02;;;;;;;4.10;1.50;;;;;;;;;;5048678;28;20053;-64
2023/01/16 03:21:01;;;;;;;6.70;1.30;;;;;;;;;;5053873;28;20766;-64
2023/01/16 03:23:40;;;;;;;5.47;1.50;;;;;;;;;;5079957;28;20055;-64
2023/01/16 03:26:43;;;;;;;7.70;1.52;;;;;;;;;;5111240;28;20046;-64
2023/01/16 03:29:27;;;;;;;4.90;1.50;;;;;;;;;;5075163;28;20052;-64
2023/01/16 03:32:18;;;;;;;4.38;1.60;;;;;;;;;;5036981;28;20056;-64
2023/01/16 03:35:25;;;;;;;4.55;1.23;;;;;;;;;;5068515;28;20061;-64
2023/01/16 03:38:00;;;;;;;4.35;1.17;;;;;;;;;;4992134;28;20058;-63
2023/01/16 03:40:36;;;;;;;6.53;1.05;;;;;;;;;;5008671;28;20050;-64
2023/01/16 03:43:11;;;;;;;8.05;1.50;;;;;;;;;;4960024;28;20541;-64
2023/01/16 03:46:17;;;;;;;3.45;1.30;;;;;;;;;;5008675;28;20050;-64
2023/01/16 03:49:02;;;;;;;9.27;1.52;;;;;;;;;;4949822;29;20071;-64
2023/01/16 03:51:37;;;;;;;5.88;1.40;;;;;;;;;;4950300;29;20047;-64
2023/01/16 03:54:16;;;;;;;6.30;1.20;;;;;;;;;;4950685;29;20055;-64
2023/01/16 03:56:52;;;;;;;3.97;1.10;;;;;;;;;;4950227;29;20056;-64
2023/01/16 03:59:23;;;;;;;5.72;1.40;;;;;;;;;;4950395;29;20055;-64
2023/01/16 04:02:03;;;;;;;3.40;1.23;;;;;;;;;;4934355;28;20531;-64
2023/01/16 04:04:42;;;;;;;5.25;1.52;;;;;;;;;;4954108;29;20066;-63
2023/01/16 04:07:35;;;;;;;7.72;1.33;;;;;;;;;;4921580;29;20043;-63
2023/01/16 04:10:10;;;;;;;7.55;1.60;;;;;;;;;;4981014;28;20097;-63
2023/01/16 04:13:09;;;;;;;7.82;1.63;;;;;;;;;;4976211;28;20071;-64
2023/01/16 04:15:45;;;;;;;5.63;1.63;;;;;;;;;;4999304;28;20054;-63
2023/01/16 04:18:15;;;;;;;7.88;1.33;;;;;;;;;;5032233;28;20050;-63
2023/01/16 04:20:49;;;;;;;6.75;1.30;;;;;;;;;;5012015;28;20062;-63
2023/01/16 04:23:19;;;;;;;5.38;1.40;;;;;;;;;;5052556;28;20061;-62
2023/01/16 04:25:49;;;;;;;3.97;1.23;;;;;;;;;;5071702;28;20421;-63
2023/01/16 04:28:19;;;;;;;5.32;1.92;;;;;;;;;;5038743;28;20402;-63
2023/01/16 04:30:49;;;;;;;6.03;1.17;;;;;;;;;;5071394;28;20044;-64
2023/01/16 04:33:19;;;;;;;5.82;1.38;;;;;;;;;;5039247;28;20063;-63
2023/01/16 04:35:48;;;;;;;6.32;1.50;;;;;;;;;;5071446;28;20052;-63
2023/01/16 04:38:18;;;;;;;4.07;1.65;;;;;;;;;;5055057;28;20063;-64
2023/01/16 04:40:48;;;;;;;4.03;1.88;;;;;;;;;;5071575;28;20053;-63
2023/01/16 04:43:19;;;;;;;5.03;1.70;;;;;;;;;;5071576;28;20377;-63
2023/01/16 04:45:48;;;;;;;2.95;1.13;;;;;;;;;;5054720;28;20056;-64
2023/01/16 04:48:18;;;;;;;9.60;1.25;;;;;;;;;;5071592;28;20053;-63
2023/01/16 04:50:49;;;;;;;12.85;1.67;;;;;;;;;;5071189;28;20721;-63
2023/01/16 04:53:19;;;;;;;5.25;1.20;;;;;;;;;;5071415;28;20055;-64
2023/01/16 04:55:49;;;;;;;5.70;1.70;;;;;;;;;;5071079;28;20060;-63
2023/01/16 04:58:19;;;;;;;4.07;1.45;;;;;;;;;;5057683;28;20051;-63
2023/01/16 05:00:49;;;;;;;6.72;1.40;;;;;;;;;;5114078;28;20058;-64
2023/01/16 05:03:19;;;;;;;6.18;1.50;;;;;;;;;;5114349;28;20082;-63
2023/01/16 05:05:49;;;;;;;3.83;1.67;;;;;;;;;;5094683;28;20051;-63
2023/01/16 05:08:19;;;;;;;4.38;1.50;;;;;;;;;;5078587;28;20049;-63
2023/01/16 05:10:49;;;;;;;3.08;1.58;;;;;;;;;;5078091;28;20064;-64
2023/01/16 05:13:20;;;;;;;3.33;1.20;;;;;;;;;;5070627;28;20056;-64
2023/01/16 05:15:51;;;;;;;5.18;1.40;;;;;;;;;;5029876;28;20057;-63
2023/01/16 05:18:21;;;;;;;4.90;1.38;;;;;;;;;;5014014;28;20049;-64
2023/01/16 05:20:52;;;;;;;3.95;1.50;;;;;;;;;;4998822;28;20464;-63
2023/01/16 05:23:22;;;;;;;3.97;1.13;;;;;;;;;;5030817;28;20158;-63
2023/01/16 05:25:53;;;;;;;2.20;1.20;;;;;;;;;;5013982;28;20618;-64
2023/01/16 05:28:24;;;;;;;3.00;1.40;;;;;;;;;;4997475;28;20057;-63
2023/01/16 05:30:53;;;;;;;5.60;1.42;;;;;;;;;;5030876;28;20561;-63
2023/01/16 05:33:24;;;;;;;4.45;1.35;;;;;;;;;;5013725;28;20061;-64
2023/01/16 05:35:54;;;;;;;4.68;1.38;;;;;;;;;;5013673;28;20056;-63
2023/01/16 05:38:24;;;;;;;6.10;1.33;;;;;;;;;;5030564;28;20061;-64
2023/01/16 05:40:54;;;;;;;3.50;1.30;;;;;;;;;;5030631;28;20094;-64
2023/01/16 05:43:26;;;;;;;4.10;1.73;;;;;;;;;;4998733;28;20057;-64
2023/01/16 05:45:56;;;;;;;3.80;1.33;;;;;;;;;;5030661;28;20417;-63
2023/01/16 05:48:28;;;;;;;4.28;1.40;;;;;;;;;;5013863;28;20041;-63
2023/01/16 05:51:00;;;;;;;3.70;1.55;;;;;;;;;;5040367;28;20052;-64
2023/01/16 05:53:30;;;;;;;7.70;1.48;;;;;;;;;;5082796;28;20511;-63
2023/01/16 05:56:07;;;;;;;3.08;1.42;;;;;;;;;;5113394;28;20054;-63
2023/01/16 05:58:38;;;;;;;7.85;2.00;;;;;;;;;;5113166;28;20396;-63
2023/01/16 06:01:07;;;;;;;9.55;2.17;;;;;;;;;;5077454;28;20515;-63
2023/01/16 06:03:37;;;;;;;5.15;1.50;;;;;;;;;;5112961;28;20044;-64
2023/01/16 06:06:07;;;;;;;3.22;1.50;;;;;;;;;;5113423;28;20715;-64
2023/01/16 06:08:37;;;;;;;3.75;1.23;;;;;;;;;;5043169;28;20052;-63
2023/01/16 06:11:07;;;;;;;5.07;1.40;;;;;;;;;;5112737;28;20044;-64
2023/01/16 06:13:37;;;;;;;12.88;2.08;;;;;;;;;;5112588;28;20036;-64
2023/01/16 06:16:07;;;;;;;6.72;1.75;;;;;;;;;;5076495;28;20059;-64
2023/01/16 06:18:37;;;;;;;6.55;1.40;;;;;;;;;;5112502;28;20051;-63
2023/01/16 06:21:07;;;;;;;7.90;2.08;;;;;;;;;;5076310;28;20514;-63
2023/01/16 06:23:37;;;;;;;3.63;1.33;;;;;;;;;;5061024;28;20055;-63
2023/01/16 06:26:09;;;;;;;11.93;1.98;;;;;;;;;;5112440;28;20475;-64
2023/01/16 06:28:40;;;;;;;4.53;1.73;;;;;;;;;;5058903;28;20070;-64
2023/01/16 06:31:10;;;;;;;6.65;1.73;;;;;;;;;;5076936;28;20466;-63
2023/01/16 06:33:40;;;;;;;4.25;2.20;;;;;;;;;;5059487;28;20796;-64
2023/01/16 06:36:10;;;;;;;3.63;1.45;;;;;;;;;;5060085;28;20051;-64
2023/01/16 06:38:40;;;;;;;4.55;1.35;;;;;;;;;;5112166;28;20055;-63
2023/01/16 06:41:10;;;;;;;5.90;1.40;;;;;;;;;;5076278;28;20411;-63
2023/01/16 06:43:40;;;;;;;4.65;1.42;;;;;;;;;;5059349;28;20062;-64
2023/01/16 06:46:12;;;;;;;2.85;1.58;;;;;;;;;;5027956;28;20522;-63
2023/01/16 06:48:42;;;;;;;4.03;1.80;;;;;;;;;;5076587;28;20426;-64
2023/01/16 06:51:12;;;;;;;5.45;1.25;;;;;;;;;;5112194;28;20040;-64
2023/01/16 06:53:42;;;;;;;4.00;1.38;;;;;;;;;;5112175;28;20107;-63
2023/01/16 06:56:11;;;;;;;5.95;1.42;;;;;;;;;;5112137;28;20403;-64
2023/01/16 06:58:41;;;;;;;3.38;1.30;;;;;;;;;;5111784;28;20043;-64
2023/01/16 07:01:12;;;;;;;3.15;1.30;;;;;;;;;;5111939;28;20043;-64
2023/01/16 07:03:42;;;;;;;4.57;1.02;;;;;;;;;;5076215;28;20420;-64
2023/01/16 07:06:15;;;;;;;5.25;1.00;;;;;;;;;;5111954;28;20403;-64
2023/01/16 07:08:48;;;;;;;3.33;1.05;;;;;;;;;;5111673;28;20046;-64
2023/01/16 07:11:19;;;;;;;2.00;1.13;;;;;;;;;;5076613;28;20060;-64
2023/01/16 07:22:34;;;;;;;3.83;1.30;;;;;;;;;;5111721;28;20052;-64
2023/01/16 07:22:38;;;;;;;2.38;1.00;;;;;;;;;;5111383;28;20040;-64
2023/01/16 07:25:33;;;;;;;3.65;1.10;;;;;;;;;;5059376;28;20060;-63
2023/01/16 07:28:04;;;;;;;3.60;1.30;;;;;;;;;;5111427;28;20039;-64
2023/01/16 07:30:34;;;;;;;3.83;1.35;;;;;;;;;;5111285;28;20048;-64
2023/01/16 07:33:04;;;;;;;2.10;1.15;;;;;;;;;;5111721;28;20043;-65
2023/01/16 07:35:34;;;;;;;3.67;1.33;;;;;;;;;;5059795;28;20052;-64
2023/01/16 07:38:04;;;;;;;3.53;1.20;;;;;;;;;;5074706;28;20050;-64
2023/01/16 07:40:34;;;;;;;3.60;1.20;;;;;;;;;;5111715;28;20047;-64
2023/01/16 07:43:04;;;;;;;2.22;1.33;;;;;;;;;;5111193;28;20047;-63
2023/01/16 07:45:34;;;;;;;2.05;0.93;;;;;;;;;;5111472;28;20044;-64
2023/01/16 07:48:05;;;;;;;2.85;1.08;;;;;;;;;;5058515;28;20622;-63
2023/01/16 07:50:35;;;;;;;2.83;1.20;;;;;;;;;;5111329;28;20070;-63
2023/01/16 07:53:05;;;;;;;5.75;1.30;;;;;;;;;;5110980;28;20069;-63
2023/01/16 07:55:35;;;;;;;3.85;1.08;;;;;;;;;;5111276;28;20051;-64
2023/01/16 07:58:05;;;;;;;4.45;1.05;;;;;;;;;;5068109;28;20048;-64
2023/01/16 08:00:35;;;;;;;6.15;1.50;;;;;;;;;;5017994;28;20048;-64
2023/01/16 08:03:05;;;;;;;3.50;1.77;;;;;;;;;;5034777;28;20424;-64
2023/01/16 08:05:35;;;;;;;9.07;1.55;;;;;;;;;;5034933;28;20064;-64
2023/01/16 08:08:05;;;;;;;2.75;1.02;;;;;;;;;;5019078;28;20057;-64
2023/01/16 08:10:35;;;;;;;4.50;1.30;;;;;;;;;;5068018;28;20063;-64
2023/01/16 08:13:06;;;;;;;4.05;1.33;;;;;;;;;;5034562;28;20064;-64
2023/01/16 08:15:36;;;;;;;10.02;1.65;;;;;;;;;;5018251;28;20044;-64
2023/01/16 08:18:06;;;;;;;4.30;1.27;;;;;;;;;;5067815;28;20049;-64
2023/01/16 08:20:36;;;;;;;6.90;1.38;;;;;;;;;;5034662;28;20061;-64
2023/01/16 08:23:06;;;;;;;4.15;1.58;;;;;;;;;;5034675;28;20416;-64
2023/01/16 08:25:37;;;;;;;4.85;1.50;;;;;;;;;;5068063;28;20044;-64
2023/01/16 08:28:07;;;;;;;4.05;1.40;;;;;;;;;;5034140;28;20063;-64
2023/01/16 08:30:36;;;;;;;3.95;1.42;;;;;;;;;;5050500;28;20492;-63
2023/01/16 08:33:06;;;;;;;5.75;1.90;;;;;;;;;;5067718;28;20171;-64
2023/01/16 08:35:36;;;;;;;4.40;1.63;;;;;;;;;;5047316;28;20051;-64
2023/01/16 08:38:08;;;;;;;6.35;1.83;;;;;;;;;;5070670;28;20044;-64
2023/01/16 08:40:39;;;;;;;2.72;1.30;;;;;;;;;;5087934;28;20064;-64
2023/01/16 08:51:46;;;;;;;2.72;0.90;;;;;;;;;;5011195;28;20058;-64
2023/01/16 08:54:15;;;;;;;2.80;0.82;;;;;;;;;;5011516;28;20054;-64
2023/01/16 08:56:46;;;;;;;2.08;0.85;;;;;;;;;;5011292;28;20528;-64
2023/01/16 08:59:17;;;;;;;1.98;0.80;;;;;;;;;;5011436;28;20414;-64
2023/01/16 09:01:47;;;;;;;4.13;1.02;;;;;;;;;;4991269;28;20061;-64
2023/01/16 09:04:17;;;;;;;4.10;1.10;;;;;;;;;;4959032;28;20054;-64
2023/01/16 09:06:48;;;;;;;2.63;0.90;;;;;;;;;;4975366;28;20066;-64
2023/01/16 09:09:18;;;;;;;2.00;1.20;;;;;;;;;;4959386;28;20058;-63
2023/01/16 09:14:43;;;;;;;2.95;1.30;;;;;;;;;;4991582;28;20046;-63
2023/01/16 09:17:13;;;;;;;3.15;1.25;;;;;;;;;;4991438;28;20061;-63
2023/01/16 09:19:42;;;;;;;5.05;1.20;;;;;;;;;;4991530;28;20069;-64
2023/01/16 09:22:13;;;;;;;3.30;1.42;;;;;;;;;;4943978;28;20423;-64
2023/01/16 09:24:44;;;;;;;5.15;1.20;;;;;;;;;;5023901;28;20067;-64
2023/01/16 09:27:15;;;;;;;3.00;1.60;;;;;;;;;;5090764;28;20059;-64
2023/01/16 09:29:45;;;;;;;6.15;1.98;;;;;;;;;;5090570;28;20071;-64
2023/01/16 09:32:16;;;;;;;6.57;2.00;;;;;;;;;;5070067;28;20049;-64
2023/01/16 09:34:47;;;;;;;5.00;1.90;;;;;;;;;;5070596;28;20061;-64
2023/01/16 09:37:17;;;;;;;6.50;2.03;;;;;;;;;;5004238;28;20063;-64
2023/01/16 09:39:48;;;;;;;3.58;2.10;;;;;;;;;;5073932;28;20508;-65
2023/01/16 09:45:24;;;;;;;2.22;1.27;;;;;;;;;;5090393;28;20490;-64
2023/01/16 09:47:59;;;;;;;5.18;1.70;;;;;;;;;;5073370;28;20044;-64
2023/01/16 09:50:40;;;;;;;5.13;2.17;;;;;;;;;;5090255;28;20523;-64
2023/01/16 09:59:24;;;;;;;4.68;2.00;;;;;;;;;;5049645;28;20056;-64
2023/01/16 10:02:01;;;;;;;8.88;2.03;;;;;;;;;;5049805;28;20539;-64
2023/01/16 10:04:32;;;;;;;3.60;2.03;;;;;;;;;;5032931;28;20044;-65
2023/01/16 10:07:31;;;;;;;8.82;2.40;;;;;;;;;;5049713;28;20547;-65
2023/01/16 10:10:10;;;;;;;7.63;2.10;;;;;;;;;;5060928;28;20520;-64
2023/01/16 10:12:45;;;;;;;7.50;2.03;;;;;;;;;;5069781;28;20548;-64
2023/01/16 10:15:46;;;;;;;9.75;1.90;;;;;;;;;;5069769;28;20090;-64
2023/01/16 10:18:16;;;;;;;5.57;2.00;;;;;;;;;;5029676;28;20054;-65
2023/01/16 10:21:01;;;;;;;3.25;1.80;;;;;;;;;;5029409;28;20072;-65
2023/01/16 10:23:47;;;;;;;5.65;1.90;;;;;;;;;;5029008;28;20060;-65
2023/01/16 10:26:31;;;;;;;6.20;1.88;;;;;;;;;;5029660;28;20053;-65
2023/01/16 10:29:10;;;;;;;3.75;1.90;;;;;;;;;;5029285;28;20053;-65
2023/01/16 10:32:14;;;;;;;3.90;2.10;;;;;;;;;;4996749;28;20057;-65
2023/01/16 10:35:06;;;;;;;4.60;2.00;;;;;;;;;;5005459;28;20061;-65
2023/01/16 10:37:38;;;;;;;3.97;1.90;;;;;;;;;;5009458;28;20046;-65
2023/01/16 10:40:16;;;;;;;;;;;;;;;;;;4970731;28;20059;-65
2023/01/16 10:51:18;;;;;;;2.05;1.10;;;;;;;;;;4970252;28;20059;-65
2023/01/16 10:53:48;;;;;;;2.20;1.30;;;;;;;;;;4970153;28;20050;-65
2023/01/16 10:56:18;;;;;;;4.32;1.45;;;;;;;;;;4922511;28;20503;-65
2023/01/16 10:58:48;;;;;;;2.25;1.20;;;;;;;;;;4970300;28;20074;-65
2023/01/16 11:01:22;;;;;;;1.95;1.00;;;;;;;;;;4970095;28;20065;-65
2023/01/16 11:03:59;;;;;;;2.40;1.20;;;;;;;;;;4934721;29;20189;-65
2023/01/16 11:06:31;;;;;;;2.47;1.20;;;;;;;;;;4951133;29;20050;-65
2023/01/16 11:09:04;;;;;;;2.15;1.10;;;;;;;;;;4934845;29;20099;-65
2023/01/16 11:20:39;;;;;;;5.00;1.95;;;;;;;;;;5009061;28;20054;-65
2023/01/16 11:23:15;;;;;;;5.95;2.05;;;;;;;;;;4992372;28;20421;-65
2023/01/16 11:25:48;;;;;;;4.15;2.13;;;;;;;;;;5008895;28;20061;-65
2023/01/16 11:28:25;;;;;;;5.60;2.50;;;;;;;;;;4991874;28;20061;-64
2023/01/16 11:31:02;;;;;;;4.10;1.73;;;;;;;;;;5008735;28;20517;-65
2023/01/16 11:33:45;;;;;;;4.55;1.75;;;;;;;;;;5008656;28;20050;-65
2023/01/16 11:36:19;;;;;;;5.13;1.63;;;;;;;;;;4992157;28;20069;-65
2023/01/16 11:38:50;;;;;;;5.65;2.38;;;;;;;;;;4960115;28;20085;-66
2023/01/16 11:41:28;;;;;;;4.70;2.22;;;;;;;;;;5008611;28;20065;-66
2023/01/16 11:47:16;;;;;;;6.43;2.00;;;;;;;;;;5111372;28;20048;-65
2023/01/16 11:49:51;;;;;;;6.60;4.05;;;;;;;;;;5092240;28;20048;-65
2023/01/16 11:52:30;;;;;;;4.97;2.47;;;;;;;;;;5111444;28;20578;-65
2023/01/16 11:55:01;;;;;;;5.22;2.75;;;;;;;;;;5075886;28;20419;-65
2023/01/16 11:57:47;;;;;;;;;;;;;;;;;;5111715;28;20368;-64
2023/01/16 12:00:40;;;;;;;3.35;1.80;;;;;;;;;;5076022;28;19927;-65
2023/01/16 12:03:41;;;;;;;5.18;2.00;;;;;;;;;;5008221;28;20065;-65
2023/01/16 12:06:40;;;;;;;6.13;2.10;;;;;;;;;;4960160;28;20057;-65
2023/01/16 12:09:13;;;;;;;5.97;1.90;;;;;;;;;;4953172;28;20050;-65
2023/01/16 12:14:17;;;;;;;6.10;1.90;;;;;;;;;;4969262;28;20465;-65
2023/01/16 12:15:17;;;;;;;5.32;2.08;;;;;;;;;;4969172;28;20055;-65
2023/01/16 12:18:20;;;;;;;4.47;1.65;;;;;;;;;;4969212;28;20062;-65
2023/01/16 12:21:01;;;;;;;4.85;1.90;;;;;;;;;;4952725;28;20058;-65
2023/01/16 12:23:45;;;;;;;4.35;1.90;;;;;;;;;;4970041;28;20047;-65
2023/01/16 12:26:43;;;;;;;7.25;2.35;;;;;;;;;;4944230;28;20062;-64
2023/01/16 12:29:37;;;;;;;5.95;1.83;;;;;;;;;;4956573;28;20059;-65
2023/01/16 12:32:28;;;;;;;3.55;1.80;;;;;;;;;;4972595;28;20051;-65
2023/01/16 12:35:19;;;;;;;5.03;2.00;;;;;;;;;;4956438;28;20050;-64
2023/01/16 12:38:09;;;;;;;3.63;1.70;;;;;;;;;;4972882;28;20057;-65
2023/01/16 12:44:21;;;;;;;3.47;1.80;;;;;;;;;;4915167;29;20599;-65
2023/01/16 12:46:51;;;;;;;4.78;2.20;;;;;;;;;;4940223;29;20059;-65
2023/01/16 12:49:21;;;;;;;5.40;2.22;;;;;;;;;;4952974;29;20055;-65
2023/01/16 12:51:57;;;;;;;3.72;2.10;;;;;;;;;;4953408;29;20055;-65
2023/01/16 12:54:56;;;;;;;6.15;2.72;;;;;;;;;;4953128;29;20523;-65
2023/01/16 12:58:00;;;;;;;5.13;2.50;;;;;;;;;;4937137;29;20531;-65
2023/01/16 13:00:49;;;;;;;5.03;2.28;;;;;;;;;;4937381;29;20103;-64
2023/01/16 13:03:42;;;;;;;7.15;2.47;;;;;;;;;;4953027;29;20058;-65
2023/01/16 13:06:17;;;;;;;5.05;2.40;;;;;;;;;;4920842;29;20531;-65
2023/01/16 13:08:59;;;;;;;5.60;2.90;;;;;;;;;;4921039;29;20526;-65
2023/01/16 13:14:42;;;;;;;7.28;3.40;;;;;;;;;;4920888;29;20060;-65
2023/01/16 13:17:25;;;;;;;5.05;2.80;;;;;;;;;;4920911;29;20450;-66
2023/01/16 13:20:02;;;;;;;5.47;2.55;;;;;;;;;;4934913;28;20054;-65
2023/01/16 13:23:10;;;;;;;4.97;2.83;;;;;;;;;;5037915;28;20083;-65
2023/01/16 13:25:43;;;;;;;5.22;2.25;;;;;;;;;;4994812;28;20065;-65
2023/01/16 13:28:33;;;;;;;6.43;2.25;;;;;;;;;;4995201;28;20321;-65
2023/01/16 13:31:12;;;;;;;7.03;3.17;;;;;;;;;;4994333;28;20046;-65
2023/01/16 13:33:45;;;;;;;7.72;2.95;;;;;;;;;;5011035;28;20455;-65
2023/01/16 13:36:45;;;;;;;5.50;2.60;;;;;;;;;;5025945;28;20053;-65
2023/01/16 13:39:39;;;;;;;5.55;2.63;;;;;;;;;;4990805;28;20050;-64
2023/01/16 13:42:14;;;;;;;6.63;2.90;;;;;;;;;;4991033;28;20101;-64
2023/01/16 13:47:40;;;;;;;5.05;2.00;;;;;;;;;;5007368;28;20077;-65
2023/01/16 13:50:29;;;;;;;6.88;3.38;;;;;;;;;;5006912;28;20051;-65
2023/01/16 13:53:07;;;;;;;5.63;2.45;;;;;;;;;;4974389;28;20061;-65
2023/01/16 13:55:42;;;;;;;5.80;2.80;;;;;;;;;;4990922;28;20062;-65
2023/01/16 13:58:20;;;;;;;4.93;2.35;;;;;;;;;;4990894;28;20058;-65
2023/01/16 14:01:04;;;;;;;8.88;2.10;;;;;;;;;;5007282;28;20506;-65
2023/01/16 14:03:36;;;;;;;8.00;3.72;;;;;;;;;;5017078;28;20080;-64
2023/01/16 14:06:11;;;;;;;3.58;1.85;;;;;;;;;;5009951;28;20050;-63
2023/01/16 14:09:08;;;;;;;3.63;2.00;;;;;;;;;;5010213;28;20054;-63
2023/01/16 14:12:18;;;;;;;4.03;2.30;;;;;;;;;;5028464;28;20046;-62
2023/01/16 14:17:53;;;;;;;;;;;;;;;;;;4971386;28;20070;-62
2023/01/16 14:20:41;;;;;;;3.40;1.92;;;;;;;;;;4971085;28;20056;-62
2023/01/16 14:26:29;;;;;;;3.25;1.90;;;;;;;;;;4971022;28;20051;-62
2023/01/16 14:29:05;;;;;;;3.90;1.77;;;;;;;;;;4938787;28;20099;-62
2023/01/16 14:31:42;;;;;;;5.43;2.10;;;;;;;;;;4954768;28;20522;-62
2023/01/16 14:34:19;;;;;;;4.47;1.95;;;;;;;;;;4970858;28;20043;-62
2023/01/16 14:36:52;;;;;;;2.70;1.65;;;;;;;;;;4970375;28;20063;-63
2023/01/16 14:39:55;;;;;;;2.92;1.65;;;;;;;;;;4970836;28;20081;-62
2023/01/16 14:55:42;;;;;;;2.60;0.93;;;;;;;;;;5068624;28;20051;-66
2023/01/16 14:58:24;;;;;;;2.83;1.40;;;;;;;;;;5111787;28;20050;-65
2023/01/16 15:02:18;;;;;;;2.47;1.20;;;;;;;;;;5111900;28;20040;-65
2023/01/16 15:03:47;;;;;;;2.17;1.10;;;;;;;;;;5075937;28;20055;-64
2023/01/16 15:06:17;;;;;;;2.30;0.80;;;;;;;;;;5112029;28;20508;-68
2023/01/16 15:08:49;;;;;;;5.32;1.20;;;;;;;;;;5060602;28;20048;-62
2023/01/16 15:11:33;;;;;;;2.55;0.90;;;;;;;;;;5075560;28;20047;-63
2023/01/16 15:14:25;;;;;;;1.77;0.60;;;;;;;;;;5075622;28;20055;-64
2023/01/16 15:23:15;;;;;;;0.82;0.50;;;;;;;;;;5092463;28;20070;-68
2023/01/16 15:25:51;;;;;;;3.40;0.50;;;;;;;;;;5018823;28;20061;-67
2023/01/16 15:28:43;;;;;;;1.40;0.80;;;;;;;;;;5048416;28;20409;-68
2023/01/16 15:31:26;;;;;;;2.97;0.65;;;;;;;;;;5015125;28;20057;-65
2023/01/16 15:34:03;;;;;;;1.75;0.57;;;;;;;;;;4999858;28;20053;-65
2023/01/16 15:36:42;;;;;;;4.65;0.68;;;;;;;;;;4988926;28;20061;-64
2023/01/16 15:39:18;;;;;;;1.33;0.70;;;;;;;;;;4989193;28;20061;-64
2023/01/16 15:48:48;;;;;;;1.60;0.80;;;;;;;;;;4880744;29;20052;-64
2023/01/16 15:51:36;;;;;;;2.72;1.02;;;;;;;;;;4912166;29;20067;-64
2023/01/16 15:54:15;;;;;;;5.05;1.10;;;;;;;;;;4880588;29;20052;-64
2023/01/16 15:56:47;;;;;;;2.58;0.90;;;;;;;;;;4911998;29;20064;-63
2023/01/16 15:59:26;;;;;;;1.95;0.90;;;;;;;;;;4914284;29;20060;-64
2023/01/16 16:02:14;;;;;;;2.78;1.35;;;;;;;;;;4916667;29;20059;-65
2023/01/16 16:04:49;;;;;;;2.20;0.98;;;;;;;;;;4953990;29;20059;-65
2023/01/16 16:07:21;;;;;;;1.70;0.90;;;;;;;;;;4922541;28;20055;-65
2023/01/16 16:09:54;;;;;;;;;;;;;;;;;;4954583;29;20055;-65
2023/01/16 16:12:24;;;;;;;2.83;1.10;;;;;;;;;;4937646;29;19922;-64
2023/01/16 16:18:20;;;;;;;1.30;0.90;;;;;;;;;;4992631;28;20077;-63
2023/01/16 16:20:53;;;;;;;5.13;1.27;;;;;;;;;;5020285;28;20057;-62
2023/01/16 16:23:25;;;;;;;1.52;0.93;;;;;;;;;;5038225;28;20063;-63
2023/01/16 16:26:04;;;;;;;2.15;1.05;;;;;;;;;;5055053;28;20057;-62
2023/01/16 16:28:41;;;;;;;2.25;1.10;;;;;;;;;;5056401;28;20083;-63
2023/01/16 16:31:26;;;;;;;1.70;1.10;;;;;;;;;;5071856;28;20052;-62
2023/01/16 16:34:16;;;;;;;2.28;0.90;;;;;;;;;;5054864;28;20048;-63
2023/01/16 16:36:49;;;;;;;1.58;0.93;;;;;;;;;;5071517;28;20056;-62
2023/01/16 16:39:30;;;;;;;3.50;1.50;;;;;;;;;;5071565;28;20448;-63
2023/01/16 16:45:08;;;;;;;1.65;0.90;;;;;;;;;;5070953;28;20052;-65
2023/01/16 16:47:43;;;;;;;1.10;0.73;;;;;;;;;;5055748;28;20404;-62
2023/01/16 16:50:35;;;;;;;2.13;1.00;;;;;;;;;;5038329;28;20643;-63
2023/01/16 16:53:13;;;;;;;1.23;0.90;;;;;;;;;;5036837;28;20055;-64
2023/01/16 16:55:51;;;;;;;;;;;;;;;;;;5071825;28;20060;-64
2023/01/16 16:58:28;;;;;;;1.67;0.77;;;;;;;;;;5071772;28;19920;-64
2023/01/16 17:00:58;;;;;;;1.48;0.80;;;;;;;;;;5030462;28;20491;-63
2023/01/16 17:03:30;;;;;;;2.20;1.10;;;;;;;;;;5057441;28;20450;-63
2023/01/16 17:06:01;;;;;;;1.40;0.68;;;;;;;;;;5041457;28;20508;-63
2023/01/16 17:08:31;;;;;;;2.03;0.70;;;;;;;;;;5074234;28;20055;-64
2023/01/16 17:11:01;;;;;;;1.42;0.68;;;;;;;;;;5057243;28;20052;-64
2023/01/16 17:13:31;;;;;;;1.27;0.93;;;;;;;;;;5040808;28;20393;-64
2023/01/16 17:16:01;;;;;;;0.90;0.50;;;;;;;;;;5074560;28;20048;-64
2023/01/16 17:18:31;;;;;;;0.80;0.70;;;;;;;;;;5091699;28;20485;-64
2023/01/16 17:21:01;;;;;;;1.10;0.70;;;;;;;;;;5114085;28;20055;-64
2023/01/16 17:23:31;;;;;;;2.03;0.73;;;;;;;;;;5113818;28;20035;-63